createdAt,value
2018-02-23T00:01:49.381Z,3.70
2018-02-23T00:04:17.144Z,4.20
2018-02-23T00:06:44.894Z,3.33
2018-02-23T00:09:12.670Z,3.50
2018-02-23T00:11:40.398Z,4.03
2018-02-23T00:14:08.158Z,4.00
2018-02-23T00:16:35.901Z,3.33
2018-02-23T00:19:03.674Z,3.07
2018-02-23T00:21:32.417Z,3.67
2018-02-23T00:24:00.150Z,4.10
2018-02-23T00:26:27.923Z,3.87
2018-02-23T00:28:55.642Z,4.10
2018-02-23T00:31:24.109Z,3.70
2018-02-23T00:34:02.592Z,3.60
2018-02-23T00:36:33.997Z,3.80
2018-02-23T00:39:01.907Z,3.43
2018-02-23T00:41:29.717Z,3.70
2018-02-23T00:43:57.471Z,3.87
2018-02-23T00:46:25.277Z,3.33
2018-02-23T00:48:53.026Z,4.00
2018-02-23T00:51:20.821Z,3.37
2018-02-23T00:53:48.628Z,3.43
2018-02-23T00:56:16.375Z,3.80
2018-02-23T00:58:44.149Z,3.93
2018-02-23T01:01:11.940Z,3.30
2018-02-23T01:03:39.719Z,3.07
2018-02-23T01:06:07.421Z,3.00
2018-02-23T01:08:35.175Z,3.07
2018-02-23T01:11:02.968Z,3.23
2018-02-23T01:13:30.668Z,3.00
2018-02-23T01:15:58.386Z,2.97
2018-02-23T01:18:26.139Z,5.70
2018-02-23T01:20:53.909Z,6.90
2018-02-23T01:23:22.488Z,8.63
2018-02-23T01:25:51.001Z,8.23
2018-02-23T01:28:18.736Z,8.80
2018-02-23T01:30:46.527Z,9.53
2018-02-23T01:33:14.293Z,9.63
2018-02-23T01:35:42.038Z,10.20
2018-02-23T01:38:09.861Z,9.93
2018-02-23T01:40:37.638Z,11.07
2018-02-23T01:43:05.393Z,11.93
2018-02-23T01:45:33.106Z,10.90
2018-02-23T01:48:00.806Z,11.53
2018-02-23T01:50:28.590Z,11.03
2018-02-23T01:52:56.338Z,11.53
2018-02-23T01:55:24.079Z,11.10
2018-02-23T01:57:51.834Z,10.73
2018-02-23T02:00:20.433Z,13.20
2018-02-23T02:02:48.232Z,11.00
2018-02-23T02:05:16.023Z,11.87
2018-02-23T02:07:43.748Z,11.93
2018-02-23T02:10:11.541Z,13.10
2018-02-23T02:12:39.361Z,12.53
2018-02-23T02:15:07.861Z,12.20
2018-02-23T02:17:35.631Z,13.13
2018-02-23T02:20:03.441Z,12.37
2018-02-23T02:22:31.285Z,12.17
2018-02-23T02:24:59.032Z,12.67
2018-02-23T02:27:26.757Z,13.90
2018-02-23T02:29:54.475Z,13.20
2018-02-23T02:32:22.241Z,12.90
2018-02-23T02:34:49.945Z,13.10
2018-02-23T02:37:17.677Z,12.63
2018-02-23T02:39:45.461Z,12.80
2018-02-23T02:42:13.296Z,14.00
2018-02-23T02:44:41.108Z,13.10
2018-02-23T02:47:08.822Z,13.57
2018-02-23T02:49:36.874Z,13.77
2018-02-23T02:52:04.644Z,12.97
2018-02-23T02:54:32.980Z,12.93
2018-02-23T02:57:00.719Z,13.63
2018-02-23T02:59:28.562Z,13.00
2018-02-23T03:01:56.345Z,13.80
2018-02-23T03:04:24.119Z,11.70
2018-02-23T03:06:51.815Z,12.73
2018-02-23T03:09:19.570Z,11.67
2018-02-23T03:11:47.287Z,11.20
2018-02-23T03:14:36.369Z,11.97
2018-02-23T03:17:04.074Z,11.67
2018-02-23T03:19:31.791Z,11.10
2018-02-23T03:22:00.393Z,12.07
2018-02-23T03:24:28.164Z,11.30
2018-02-23T03:26:55.954Z,10.80
2018-02-23T03:29:23.641Z,11.83
2018-02-23T03:31:51.358Z,10.30
2018-02-23T03:34:19.073Z,9.83
2018-02-23T03:36:46.773Z,10.00
2018-02-23T03:39:15.341Z,9.60
2018-02-23T03:41:43.117Z,10.53
2018-02-23T03:44:10.883Z,10.17
2018-02-23T03:46:38.678Z,9.10
2018-02-23T03:49:06.444Z,9.20
2018-02-23T03:51:34.156Z,8.50
2018-02-23T03:54:01.860Z,8.80
2018-02-23T03:56:29.679Z,9.67
2018-02-23T03:58:57.461Z,9.60
2018-02-23T04:01:25.261Z,9.33
2018-02-23T04:03:52.995Z,9.50
2018-02-23T04:06:20.695Z,9.57
2018-02-23T04:08:48.423Z,9.10
2018-02-23T04:11:16.125Z,9.57
2018-02-23T04:13:43.933Z,8.80
2018-02-23T04:16:11.724Z,9.10
2018-02-23T04:18:39.498Z,9.17
2018-02-23T04:21:08.151Z,9.93
2018-02-23T04:23:36.662Z,9.67
2018-02-23T04:26:04.435Z,9.97
2018-02-23T04:28:32.142Z,10.80
2018-02-23T04:30:59.904Z,9.90
2018-02-23T04:33:27.678Z,9.73
2018-02-23T04:35:55.395Z,9.07
2018-02-23T04:38:23.219Z,10.13
2018-02-23T04:40:51.002Z,10.20
2018-02-23T04:43:18.737Z,10.60
2018-02-23T04:45:46.527Z,10.27
2018-02-23T04:48:14.325Z,10.10
2018-02-23T04:50:42.084Z,9.53
2018-02-23T04:53:09.884Z,10.53
2018-02-23T04:55:37.611Z,9.77
2018-02-23T04:58:05.407Z,10.63
2018-02-23T05:00:33.244Z,10.30
2018-02-23T05:03:01.044Z,9.80
2018-02-23T05:05:28.812Z,11.40
2018-02-23T05:07:57.327Z,10.30
2018-02-23T05:10:25.139Z,10.57
2018-02-23T05:12:52.881Z,10.70
2018-02-23T05:15:20.681Z,9.90
2018-02-23T05:17:48.388Z,9.73
2018-02-23T05:20:16.083Z,10.27
2018-02-23T05:22:43.777Z,11.57
2018-02-23T05:25:11.531Z,11.70
2018-02-23T05:27:39.266Z,11.30
2018-02-23T05:30:07.013Z,10.80
2018-02-23T05:32:34.732Z,9.90
2018-02-23T05:35:02.438Z,12.83
2018-02-23T05:37:30.164Z,12.07
2018-02-23T05:39:57.925Z,10.30
2018-02-23T05:42:25.627Z,9.97
2018-02-23T05:44:54.139Z,11.37
2018-02-23T05:47:21.847Z,9.63
2018-02-23T05:49:49.637Z,10.30
2018-02-23T05:52:17.327Z,9.30
2018-02-23T05:54:45.038Z,9.20
2018-02-23T05:57:12.794Z,10.10
2018-02-23T05:59:40.542Z,8.77
2018-02-23T06:02:09.192Z,8.83
2018-02-23T06:04:36.928Z,7.70
2018-02-23T06:07:04.730Z,8.40
2018-02-23T06:09:33.223Z,7.93
2018-02-23T06:12:01.771Z,7.80
2018-02-23T06:14:29.526Z,8.70
2018-02-23T06:16:57.310Z,9.00
2018-02-23T06:19:30.771Z,8.43
2018-02-23T06:21:58.999Z,9.03
2018-02-23T06:24:26.769Z,8.47
2018-02-23T06:26:54.575Z,9.07
2018-02-23T06:29:22.290Z,11.03
2018-02-23T06:31:50.059Z,9.40
2018-02-23T06:34:17.805Z,9.20
2018-02-23T06:36:45.540Z,10.60
2018-02-23T06:39:13.278Z,10.80
2018-02-23T06:41:41.050Z,10.87
2018-02-23T06:44:08.845Z,10.00
2018-02-23T06:46:36.563Z,10.40
2018-02-23T06:49:04.313Z,9.67
2018-02-23T06:51:32.072Z,9.60
2018-02-23T06:53:59.810Z,9.20
2018-02-23T06:56:27.560Z,10.10
2018-02-23T06:58:55.305Z,8.60
2018-02-23T07:01:23.814Z,8.87
2018-02-23T07:03:51.572Z,8.63
2018-02-23T07:06:19.286Z,8.90
2018-02-23T07:08:47.015Z,9.60
2018-02-23T07:11:15.239Z,9.40
2018-02-23T07:13:43.590Z,8.10
2018-02-23T07:16:12.872Z,9.87
2018-02-23T07:18:41.314Z,8.10
2018-02-23T07:21:09.666Z,8.80
2018-02-23T07:23:38.308Z,7.30
2018-02-23T07:26:06.062Z,7.77
2018-02-23T07:28:33.787Z,6.50
2018-02-23T07:31:01.475Z,7.13
2018-02-23T07:33:29.168Z,7.70
2018-02-23T07:35:57.665Z,7.70
2018-02-23T07:38:25.339Z,7.63
2018-02-23T07:40:53.042Z,6.50
2018-02-23T07:43:20.766Z,7.10
2018-02-23T07:45:48.488Z,7.10
2018-02-23T07:48:16.200Z,6.67
2018-02-23T07:50:43.910Z,6.10
2018-02-23T07:53:11.620Z,5.83
2018-02-23T07:55:39.320Z,6.67
2018-02-23T07:58:07.070Z,7.67
2018-02-23T08:00:34.861Z,6.77
2018-02-23T08:03:02.568Z,6.80
2018-02-23T08:05:30.291Z,8.07
2018-02-23T08:07:58.027Z,6.97
2018-02-23T08:10:25.718Z,7.70
2018-02-23T08:12:53.383Z,6.83
2018-02-23T08:15:21.137Z,7.37
2018-02-23T08:17:48.821Z,7.80
2018-02-23T08:20:16.579Z,7.10
2018-02-23T08:22:44.279Z,7.87
2018-02-23T08:25:12.036Z,8.00
2018-02-23T08:27:39.838Z,8.33
2018-02-23T08:30:07.668Z,7.60
2018-02-23T08:32:35.456Z,7.80
2018-02-23T08:35:03.327Z,8.43
2018-02-23T08:37:31.051Z,7.73
2018-02-23T08:39:58.831Z,9.57
2018-02-23T08:42:26.619Z,8.20
2018-02-23T08:44:55.134Z,8.90
2018-02-23T08:47:22.904Z,9.10
2018-02-23T08:49:50.628Z,8.90
2018-02-23T08:52:18.429Z,9.30
2018-02-23T08:54:46.174Z,8.70
2018-02-23T08:57:13.933Z,8.07
2018-02-23T08:59:42.475Z,10.20
2018-02-23T09:02:10.315Z,9.33
2018-02-23T09:04:38.100Z,9.10
2018-02-23T09:07:05.834Z,9.43
2018-02-23T09:09:33.620Z,9.60
2018-02-23T09:12:01.380Z,9.27
2018-02-23T09:14:30.152Z,9.97
2018-02-23T09:16:57.894Z,9.37
2018-02-23T09:19:25.645Z,8.70
2018-02-23T09:21:53.446Z,9.27
2018-02-23T09:24:21.247Z,9.03
2018-02-23T09:26:49.048Z,8.90
2018-02-23T09:29:16.777Z,9.33
2018-02-23T09:31:44.565Z,8.70
2018-02-23T09:34:24.198Z,9.30
2018-02-23T09:36:51.954Z,9.90
2018-02-23T09:39:19.782Z,8.43
2018-02-23T09:41:47.586Z,8.97
2018-02-23T09:44:15.567Z,9.20
2018-02-23T09:46:43.303Z,9.30
2018-02-23T09:49:11.312Z,9.37
2018-02-23T09:51:39.104Z,8.63
2018-02-23T09:54:06.935Z,8.90
2018-02-23T09:56:35.018Z,9.87
2018-02-23T09:59:02.837Z,9.00
2018-02-23T10:01:30.553Z,9.00
2018-02-23T10:03:58.354Z,9.20
2018-02-23T10:06:26.171Z,9.47
2018-02-23T10:08:53.913Z,8.90
2018-02-23T10:11:21.711Z,9.23
2018-02-23T10:13:49.518Z,8.47
2018-02-23T10:16:17.247Z,9.57
2018-02-23T10:18:45.049Z,9.30
2018-02-23T10:21:12.788Z,10.53
2018-02-23T10:23:40.646Z,8.80
2018-02-23T10:26:08.408Z,9.37
2018-02-23T10:28:36.183Z,8.90
2018-02-23T10:31:03.939Z,8.87
2018-02-23T10:33:31.773Z,9.60
2018-02-23T10:36:00.425Z,9.20
2018-02-23T10:38:28.238Z,9.60
2018-02-23T10:40:56.831Z,8.97
2018-02-23T10:43:24.660Z,9.10
2018-02-23T10:45:52.452Z,10.00
2018-02-23T10:48:21.081Z,9.17
2018-02-23T10:50:48.856Z,10.53
2018-02-23T10:53:16.649Z,9.60
2018-02-23T10:55:44.392Z,9.83
2018-02-23T10:58:12.183Z,10.17
2018-02-23T11:00:39.937Z,10.00
2018-02-23T11:03:07.717Z,11.33
2018-02-23T11:05:35.442Z,10.80
2018-02-23T11:08:03.248Z,11.33
2018-02-23T11:10:31.048Z,11.37
2018-02-23T11:12:59.655Z,11.47
2018-02-23T11:15:27.472Z,10.77
2018-02-23T11:17:55.259Z,11.37
2018-02-23T11:20:23.834Z,11.73
2018-02-23T11:22:51.620Z,12.17
2018-02-23T11:25:19.417Z,12.43
2018-02-23T11:27:47.151Z,12.13
2018-02-23T11:30:14.888Z,11.07
2018-02-23T11:32:42.617Z,11.60
2018-02-23T11:35:10.377Z,12.60
2018-02-23T11:37:38.128Z,10.77
2018-02-23T11:40:05.909Z,10.47
2018-02-23T11:42:33.651Z,11.87
2018-02-23T11:45:01.479Z,11.83
2018-02-23T11:47:29.232Z,11.50
2018-02-23T11:49:57.058Z,12.80
2018-02-23T11:52:24.786Z,11.00
2018-02-23T11:54:52.517Z,11.00
2018-02-23T11:57:25.897Z,11.80
2018-02-23T11:59:53.649Z,10.20
2018-02-23T12:02:21.458Z,11.17
2018-02-23T12:04:49.573Z,11.53
2018-02-23T12:07:17.400Z,10.73
2018-02-23T12:09:45.187Z,10.83
2018-02-23T12:12:13.043Z,10.50
2018-02-23T12:14:40.791Z,10.03
2018-02-23T12:17:08.596Z,10.27
2018-02-23T12:19:36.418Z,9.33
2018-02-23T12:22:04.177Z,10.30
2018-02-23T12:24:31.967Z,10.77
2018-02-23T12:26:59.766Z,10.40
2018-02-23T12:29:27.569Z,10.40
2018-02-23T12:31:56.089Z,11.53
2018-02-23T12:34:23.911Z,11.00
2018-02-23T12:36:51.886Z,11.10
2018-02-23T12:39:19.638Z,11.17
2018-02-23T12:41:47.434Z,13.13
2018-02-23T12:44:15.259Z,12.77
2018-02-23T12:46:43.034Z,14.00
2018-02-23T12:49:10.767Z,13.30
2018-02-23T12:51:38.848Z,13.30
2018-02-23T12:54:06.736Z,14.77
2018-02-23T12:56:35.327Z,13.07
2018-02-23T12:59:03.126Z,13.20
2018-02-23T13:01:30.867Z,12.97
2018-02-23T13:03:58.677Z,13.43
2018-02-23T13:06:26.418Z,13.17
2018-02-23T13:08:54.212Z,13.90
2018-02-23T13:11:22.012Z,12.43
2018-02-23T13:13:55.527Z,14.07
2018-02-23T13:16:30.145Z,13.97
2018-02-23T13:18:57.917Z,13.33
2018-02-23T13:21:25.707Z,13.10
2018-02-23T13:23:54.248Z,13.60
2018-02-23T13:26:22.027Z,12.90
2018-02-23T13:28:49.889Z,13.00
2018-02-23T13:31:17.723Z,14.00
2018-02-23T13:33:45.519Z,14.33
2018-02-23T13:36:13.291Z,14.17
2018-02-23T13:38:41.016Z,14.50
2018-02-23T13:41:14.477Z,13.83
2018-02-23T13:43:42.276Z,12.60
2018-02-23T13:46:10.126Z,13.57
2018-02-23T13:48:37.860Z,15.00
2018-02-23T13:51:05.631Z,13.70
2018-02-23T13:53:39.036Z,14.77
2018-02-23T13:56:06.801Z,13.10
2018-02-23T13:58:35.160Z,13.30
2018-02-23T14:01:03.853Z,14.50
2018-02-23T14:03:33.156Z,13.13
2018-02-23T14:06:03.898Z,12.30
2018-02-23T14:08:31.704Z,12.57
2018-02-23T14:10:59.528Z,12.87
2018-02-23T14:13:27.325Z,13.20
2018-02-23T14:15:55.157Z,12.00
2018-02-23T14:18:22.916Z,12.97
2018-02-23T14:20:50.654Z,11.60
2018-02-23T14:23:18.458Z,12.33
2018-02-23T14:25:46.379Z,12.33
2018-02-23T14:28:14.932Z,11.93
2018-02-23T14:30:42.757Z,11.03
2018-02-23T14:33:10.528Z,12.30
2018-02-23T14:35:38.239Z,12.27
2018-02-23T14:38:07.209Z,9.90
2018-02-23T14:40:34.991Z,11.10
2018-02-23T14:43:02.859Z,10.63
2018-02-23T14:45:30.636Z,10.97
2018-02-23T14:47:58.374Z,11.40
2018-02-23T14:50:38.015Z,11.87
2018-02-23T14:53:05.757Z,11.00
2018-02-23T14:55:33.476Z,12.07
2018-02-23T14:58:01.217Z,10.73
2018-02-23T15:00:28.999Z,11.10
2018-02-23T15:02:56.800Z,10.97
2018-02-23T15:05:24.604Z,12.37
2018-02-23T15:07:52.345Z,12.63
2018-02-23T15:10:20.092Z,11.63
2018-02-23T15:12:47.897Z,12.40
2018-02-23T15:15:15.632Z,11.70
2018-02-23T15:17:43.416Z,12.00
2018-02-23T15:20:11.160Z,12.30
2018-02-23T15:22:38.921Z,13.10
2018-02-23T15:25:06.669Z,11.87
2018-02-23T15:27:34.450Z,12.40
2018-02-23T15:30:02.188Z,13.53
2018-02-23T15:32:44.821Z,13.40
2018-02-23T15:35:14.444Z,12.90
2018-02-23T15:37:42.252Z,13.40
2018-02-23T15:40:11.122Z,12.93
2018-02-23T15:42:38.946Z,11.70
2018-02-23T15:45:06.731Z,11.83
2018-02-23T16:01:03.960Z,11.17
2018-02-23T16:03:31.813Z,11.17
2018-02-23T16:05:59.737Z,12.00
2018-02-23T16:08:27.531Z,11.30
2018-02-23T16:10:55.319Z,11.20
2018-02-23T16:13:23.107Z,11.20
2018-02-23T16:15:51.318Z,10.83
2018-02-23T16:18:20.142Z,11.03
2018-02-23T16:20:47.988Z,10.80
2018-02-23T16:23:16.389Z,9.40
2018-02-23T16:25:44.194Z,10.07
2018-02-23T16:28:12.195Z,8.63
2018-02-23T16:30:40.090Z,8.53
2018-02-23T16:33:09.295Z,7.53
2018-02-23T16:35:41.541Z,7.77
2018-02-23T16:38:09.351Z,7.07
2018-02-23T16:40:37.785Z,7.40
2018-02-23T16:43:10.358Z,7.30
2018-02-23T16:45:38.187Z,6.53
2018-02-23T16:48:06.047Z,6.93
2018-02-23T16:50:33.988Z,6.37
2018-02-23T16:53:02.775Z,7.10
2018-02-23T16:55:30.517Z,5.90
2018-02-23T16:57:58.447Z,6.67
2018-02-23T17:00:26.205Z,6.23
2018-02-23T17:02:53.942Z,6.00
2018-02-23T17:05:23.436Z,5.43
2018-02-23T17:07:51.297Z,5.83
2018-02-23T17:10:19.112Z,4.90
2018-02-23T17:12:47.731Z,5.23
2018-02-23T17:15:16.489Z,5.20
2018-02-23T17:17:44.332Z,5.00
2018-02-23T17:20:12.044Z,4.60
2018-02-23T17:22:39.791Z,4.57
2018-02-23T17:25:07.603Z,5.00
2018-02-23T17:27:35.377Z,5.57
2018-02-23T17:30:04.110Z,5.30
2018-02-23T17:32:31.956Z,5.40
2018-02-23T17:35:00.384Z,5.37
2018-02-23T17:37:29.137Z,5.00
2018-02-23T17:39:57.052Z,5.57
2018-02-23T17:42:24.882Z,5.53
2018-02-23T17:44:53.469Z,4.90
2018-02-23T17:47:21.309Z,4.93
2018-02-23T17:49:49.906Z,5.03
2018-02-23T17:52:17.694Z,4.17
2018-02-23T17:54:48.356Z,4.40
2018-02-23T17:57:19.950Z,4.10
2018-02-23T17:59:47.778Z,4.50
2018-02-23T18:02:16.348Z,4.20
2018-02-23T18:04:44.094Z,4.37
2018-02-23T18:07:11.926Z,4.07
2018-02-23T18:12:22.856Z,3.40
2018-02-23T18:14:50.585Z,3.80
2018-02-23T18:17:18.690Z,3.40
2018-02-23T18:19:46.438Z,3.83
2018-02-23T18:22:14.391Z,3.33
2018-02-23T18:24:42.270Z,3.70
2018-02-23T18:27:10.097Z,4.67
2018-02-23T18:29:37.913Z,4.53
2018-02-23T18:32:05.689Z,4.80
2018-02-23T18:34:33.399Z,4.50
2018-02-23T18:37:01.214Z,4.90
2018-02-23T18:39:30.625Z,4.80
2018-02-23T18:41:58.414Z,5.40
2018-02-23T18:44:26.916Z,4.50
2018-02-23T18:46:54.676Z,5.50
2018-02-23T18:49:22.520Z,5.40
2018-02-23T18:51:51.100Z,5.00
2018-02-23T18:54:18.864Z,5.13
2018-02-23T18:56:46.630Z,4.97
2018-02-23T18:59:14.574Z,4.13
2018-02-23T19:01:43.367Z,4.60
2018-02-23T19:04:12.937Z,5.07
2018-02-23T19:06:40.782Z,4.90
2018-02-23T19:09:08.971Z,4.43
2018-02-23T19:11:37.593Z,4.73
2018-02-23T19:14:05.447Z,5.40
2018-02-23T19:16:33.274Z,4.60
2018-02-23T19:19:01.047Z,5.00
2018-02-23T19:21:28.844Z,4.40
2018-02-23T19:23:56.575Z,5.20
2018-02-23T19:26:24.365Z,5.37
2018-02-23T19:28:53.699Z,5.43
2018-02-23T19:31:21.518Z,6.07
2018-02-23T19:33:49.344Z,5.50
2018-02-23T19:36:17.071Z,5.83
2018-02-23T19:38:44.911Z,5.07
2018-02-23T19:41:12.840Z,4.97
2018-02-23T19:43:40.563Z,5.30
2018-02-23T19:46:08.298Z,5.97
2018-02-23T19:48:36.070Z,6.20
2018-02-23T19:51:04.613Z,6.00
2018-02-23T19:53:32.427Z,5.57
2018-02-23T19:56:00.293Z,6.37
2018-02-23T19:58:30.154Z,6.20
2018-02-23T20:00:58.003Z,6.90
2018-02-23T20:03:25.845Z,6.80
2018-02-23T20:05:53.582Z,6.83
2018-02-23T20:08:21.606Z,6.67
2018-02-23T20:10:51.928Z,6.03
2018-02-23T20:13:20.461Z,6.30
2018-02-23T20:15:48.592Z,7.07
2018-02-23T20:18:16.751Z,6.53
2018-02-23T20:20:46.941Z,5.87
2018-02-23T20:23:16.704Z,5.43
2018-02-23T20:25:44.520Z,5.73
2018-02-23T20:28:12.362Z,5.93
2018-02-23T20:30:40.305Z,6.30
2018-02-23T20:33:08.523Z,5.10
2018-02-23T20:35:36.284Z,6.37
2018-02-23T20:38:04.096Z,6.83
2018-02-23T20:40:31.889Z,6.70
2018-02-23T20:43:00.028Z,6.57
2018-02-23T20:45:28.084Z,6.87
2018-02-23T20:47:55.904Z,6.60
2018-02-23T20:50:23.663Z,6.90
2018-02-23T20:52:51.535Z,5.73
2018-02-23T20:55:22.470Z,6.37
2018-02-23T20:57:50.269Z,6.57
2018-02-23T21:00:21.887Z,6.20
2018-02-23T21:02:49.928Z,6.50
2018-02-23T21:05:17.700Z,7.03
2018-02-23T21:07:45.991Z,7.10
2018-02-23T21:10:13.792Z,7.27
2018-02-23T21:12:41.745Z,6.67
2018-02-23T21:15:09.603Z,8.17
2018-02-23T21:17:37.688Z,7.37
2018-02-23T21:20:05.629Z,6.83
2018-02-23T21:22:33.568Z,7.63
2018-02-23T21:25:02.251Z,7.60
2018-02-23T21:27:30.365Z,8.47
2018-02-23T21:29:58.261Z,8.33
2018-02-23T21:32:26.093Z,7.47
2018-02-23T21:34:53.943Z,7.53
2018-02-23T21:37:22.240Z,7.57
2018-02-23T21:39:50.268Z,8.20
2018-02-23T21:42:18.140Z,8.13
2018-02-23T21:44:47.810Z,8.10
2018-02-23T21:47:15.680Z,8.90
2018-02-23T21:49:43.562Z,8.27
2018-02-23T21:52:11.393Z,9.07
2018-02-23T21:54:40.622Z,8.43
2018-02-23T21:57:09.396Z,9.60
2018-02-23T21:59:46.904Z,9.20
2018-02-23T22:02:16.774Z,8.50
2018-02-23T22:04:47.976Z,8.30
2018-02-23T22:07:15.763Z,9.20
2018-02-23T22:09:43.522Z,9.03
2018-02-23T22:12:11.374Z,9.07
2018-02-23T22:14:39.296Z,9.93
2018-02-23T22:17:07.076Z,9.67
2018-02-23T22:19:34.995Z,9.33
2018-02-23T22:22:02.828Z,9.43
2018-02-23T22:24:30.635Z,9.53
2018-02-23T22:26:58.537Z,10.10
2018-02-23T22:29:26.434Z,10.77
2018-02-23T22:31:54.234Z,10.40
2018-02-23T22:34:22.876Z,9.70
2018-02-23T22:36:50.656Z,9.17
2018-02-23T22:39:18.444Z,9.47
2018-02-23T22:41:46.291Z,10.10
2018-02-23T22:44:14.048Z,9.33
2018-02-23T22:46:41.915Z,11.40
2018-02-23T22:49:09.672Z,10.13
2018-02-23T22:51:37.464Z,9.50
2018-02-23T22:54:05.244Z,9.77
2018-02-23T22:56:33.052Z,8.87
2018-02-23T22:59:00.813Z,8.73
2018-02-23T23:01:28.586Z,8.83
2018-02-23T23:03:56.813Z,8.90
2018-02-23T23:06:24.605Z,8.60
2018-02-23T23:08:52.485Z,8.80
2018-02-23T23:11:22.019Z,8.67
2018-02-23T23:13:49.810Z,9.20
2018-02-23T23:16:17.562Z,8.67
2018-02-23T23:18:45.410Z,7.97
2018-02-23T23:21:13.176Z,7.73
2018-02-23T23:23:40.968Z,8.07
2018-02-23T23:26:08.788Z,6.63
2018-02-23T23:28:36.610Z,7.67
2018-02-23T23:31:04.404Z,7.80
2018-02-23T23:33:32.300Z,7.80
2018-02-23T23:36:00.133Z,7.50
2018-02-23T23:38:27.986Z,7.60
2018-02-23T23:40:55.777Z,7.50
2018-02-23T23:43:23.619Z,7.07
2018-02-23T23:45:51.408Z,7.30
2018-02-23T23:48:19.154Z,6.60
2018-02-23T23:50:46.994Z,7.23
2018-02-23T23:53:14.806Z,6.90
2018-02-23T23:55:42.570Z,7.00
2018-02-23T23:58:10.397Z,6.17
